Ellipsis — WDE4581 — position and weather

sailwx.info

Track history (hours):
 
Tides and Currents Weather Stations Pressure Air Temp Water Temp Dewpoint Dewpoint Depression Visibility Wind Speed Wind Dir Waves Ship Positions

Ellipsis

Owner: Gulledge, Carl L, Redmond, WA. More information available from US FCC via Universal Licensing System and Coast Guard Vessel Documentation Center.

Last reported at 2017-Sep-08 19:16 UTC. Time now 2017-Oct-19 18:06 UTC.
Position N 47°43' W 122°33'.
Warning: this ship's position is 40 days out of date.

Length 19 m.

Type: Pleasure craft. MMSI: 367355160.

Date/timePositionNaut miles runAvg speedWind from/ knotsBaromVisibWave heightAir tempDewpointWater temp
2017-Sep-08 19:16N 47°43' W 122°33'3 8.0
2017-Sep-08 18:55N 47°43' W 122°29'4 0.2
2017-Sep-08 03:46N 47°41' W 122°24'0 0.0
2017-Sep-08 03:28N 47°41' W 122°24'0 0.0
2017-Sep-08 02:55N 47°41' W 122°24'0 0.0
2017-Sep-08 02:25N 47°41' W 122°24'0 0.0
2017-Sep-08 01:55N 47°41' W 122°24'0 0.0
2017-Sep-08 01:28N 47°41' W 122°24'0 0.0
2017-Sep-08 00:58N 47°41' W 122°24'0 0.0
2017-Sep-08 00:28N 47°41' W 122°24'0 0.0
2017-Sep-07 23:58N 47°41' W 122°24'0 0.0
2017-Sep-07 23:28N 47°41' W 122°24'0 0.0
2017-Sep-07 22:58N 47°41' W 122°24'0 0.0
2017-Sep-07 22:28N 47°41' W 122°24'0 0.0
2017-Sep-07 21:58N 47°41' W 122°24'0 0.0
2017-Sep-07 21:28N 47°41' W 122°24'0 0.0
2017-Sep-07 20:58N 47°41' W 122°24'0 0.0
2017-Sep-07 20:28N 47°41' W 122°24'0 0.0
2017-Sep-07 19:58N 47°41' W 122°24'0 0.4
2017-Sep-07 19:30N 47°41' W 122°25'3 6.2
2017-Sep-07 19:00N 47°42' W 122°29'  
2017-Aug-31 01:32N 47°43' W 122°34'0 7.8
2017-Aug-31 01:30N 47°43' W 122°33'4 7.6
2017-Aug-31 01:00N 47°45' W 122°28'4 7.4
2017-Aug-31 00:30N 47°48' W 122°26'4 7.9
2017-Aug-31 00:00N 47°52' W 122°24'4 8.4
2017-Aug-30 23:30N 47°56' W 122°21'31 6.5
2017-Aug-30 18:39N 48°27' W 122°30'1 7.0
2017-Aug-30 18:30N 48°28' W 122°31'12 4.1
2017-Aug-30 15:33N 48°38' W 122°40'1 8.7
2017-Aug-30 15:29N 48°39' W 122°40'39 2.0
2017-Aug-29 20:16N 49°07' W 123°19'4 8.4
2017-Aug-29 19:48N 49°11' W 123°19'3 8.4
2017-Aug-29 19:30N 49°14' W 123°18'  
Track history (hours):
 
Tides and Currents Weather Stations Pressure Air Temp Water Temp Dewpoint Dewpoint Depression Visibility Wind Speed Wind Dir Waves Ship Positions

Ellipsis

Owner: Gulledge, Carl L, Redmond, WA. More information available from US FCC via Universal Licensing System and Coast Guard Vessel Documentation Center.

Last reported at 2017-Sep-08 19:16 UTC. Time now 2017-Oct-19 18:06 UTC.
Position N 47°43' W 122°33'.
Warning: this ship's position is 40 days out of date.

Length 19 m.

Type: Pleasure craft. MMSI: 367355160.

Date/timePositionNaut miles runAvg speedWind from/ knotsBaromVisibWave heightAir tempDewpointWater temp
2017-Sep-08 19:16N 47°43' W 122°33'3 8.0
2017-Sep-08 18:55N 47°43' W 122°29'4 0.2
2017-Sep-08 03:46N 47°41' W 122°24'0 0.0
2017-Sep-08 03:28N 47°41' W 122°24'0 0.0
2017-Sep-08 02:55N 47°41' W 122°24'0 0.0
2017-Sep-08 02:25N 47°41' W 122°24'0 0.0
2017-Sep-08 01:55N 47°41' W 122°24'0 0.0
2017-Sep-08 01:28N 47°41' W 122°24'0 0.0
2017-Sep-08 00:58N 47°41' W 122°24'0 0.0
2017-Sep-08 00:28N 47°41' W 122°24'0 0.0
2017-Sep-07 23:58N 47°41' W 122°24'0 0.0
2017-Sep-07 23:28N 47°41' W 122°24'0 0.0
2017-Sep-07 22:58N 47°41' W 122°24'0 0.0
2017-Sep-07 22:28N 47°41' W 122°24'0 0.0
2017-Sep-07 21:58N 47°41' W 122°24'0 0.0
2017-Sep-07 21:28N 47°41' W 122°24'0 0.0
2017-Sep-07 20:58N 47°41' W 122°24'0 0.0
2017-Sep-07 20:28N 47°41' W 122°24'0 0.0
2017-Sep-07 19:58N 47°41' W 122°24'0 0.4
2017-Sep-07 19:30N 47°41' W 122°25'3 6.2
2017-Sep-07 19:00N 47°42' W 122°29'  
2017-Aug-31 01:32N 47°43' W 122°34'0 7.8
2017-Aug-31 01:30N 47°43' W 122°33'4 7.6
2017-Aug-31 01:00N 47°45' W 122°28'4 7.4
2017-Aug-31 00:30N 47°48' W 122°26'4 7.9
2017-Aug-31 00:00N 47°52' W 122°24'4 8.4
2017-Aug-30 23:30N 47°56' W 122°21'31 6.5
2017-Aug-30 18:39N 48°27' W 122°30'1 7.0
2017-Aug-30 18:30N 48°28' W 122°31'12 4.1
2017-Aug-30 15:33N 48°38' W 122°40'1 8.7
2017-Aug-30 15:29N 48°39' W 122°40'39 2.0
2017-Aug-29 20:16N 49°07' W 123°19'4 8.4
2017-Aug-29 19:48N 49°11' W 123°19'3 8.4
2017-Aug-29 19:30N 49°14' W 123°18'  

Dump ship's entire track history